Weather at Arthur North Airport [CLOSED]

Public forecast

Using degrees Celsius for public forecast. Weather courtesy of forecast.io.

Closest aviation weather report (METAR) to Arthur North Airport

Closest report is Waterloo Airport, 26.2 nm (48.6 km) SSE. Retrieved 2020/10/01 19:00 UTC (4 minutes ago):

CYKF 011900Z AUTO 28013KT 220V290 9SM BKN048 17/06 A2985 RMK SLP111 DENSITY ALT 1600FT

Closest aviation forecast (TAF) to Arthur North Airport

Closest forecast is Waterloo Airport, 26.2 nm (48.6 km) SSE. Retrieved 2020/10/01 14:39 UTC (4 hours ago):

TAF CYKF 011338Z 0114/0202 24010G20KT P6SM SCT015 BKN030 TEMPO 0114/0117 BKN015 FM011700 25012KT P6SM BKN050 FM012000 23010G20KT P6SM -SHRA BKN030 TEMPO 0120/0202 4SM -SHRA BR BKN020 PROB30 0120/0202 VRB15G25KT 2SM TSRA BR BKN015 OVC030CB RMK FCST BASED ON AUTO OBS NXT FCST BY 012000Z